sensor_id;sensor_type;location;lat;lon;timestamp;pressure;altitude;pressure_sealevel;temperature;humidity
68525;BME280;55524;51.380;13.372;2022-09-21T00:01:11;101434.34;;;9.20;100.00
68525;BME280;55524;51.380;13.372;2022-09-21T00:03:38;101435.19;;;9.24;100.00
68525;BME280;55524;51.380;13.372;2022-09-21T00:06:08;101439.59;;;9.23;100.00
68525;BME280;55524;51.380;13.372;2022-09-21T00:08:35;101440.41;;;9.25;100.00
68525;BME280;55524;51.380;13.372;2022-09-21T00:11:02;101435.22;;;9.21;100.00
68525;BME280;55524;51.380;13.372;2022-09-21T00:13:30;101433.47;;;9.20;100.00
68525;BME280;55524;51.380;13.372;2022-09-21T00:16:01;101434.34;;;9.20;100.00
68525;BME280;55524;51.380;13.372;2022-09-21T00:18:29;101432.56;;;9.21;100.00
68525;BME280;55524;51.380;13.372;2022-09-21T00:20:56;101436.94;;;9.22;100.00
68525;BME280;55524;51.380;13.372;2022-09-21T00:23:22;101433.44;;;9.21;100.00
68525;BME280;55524;51.380;13.372;2022-09-21T00:25:48;101438.75;;;9.20;100.00
68525;BME280;55524;51.380;13.372;2022-09-21T00:28:15;101437.06;;;9.16;100.00
68525;BME280;55524;51.380;13.372;2022-09-21T00:30:42;101436.13;;;9.18;100.00
68525;BME280;55524;51.380;13.372;2022-09-21T00:33:08;101442.22;;;9.22;100.00
68525;BME280;55524;51.380;13.372;2022-09-21T00:35:34;101447.56;;;9.17;100.00
68525;BME280;55524;51.380;13.372;2022-09-21T00:38:01;101444.94;;;9.17;100.00
68525;BME280;55524;51.380;13.372;2022-09-21T00:40:30;101449.34;;;9.17;100.00
68525;BME280;55524;51.380;13.372;2022-09-21T00:43:13;101444.97;;;9.14;100.00
68525;BME280;55524;51.380;13.372;2022-09-21T00:45:41;101444.09;;;9.14;100.00
68525;BME280;55524;51.380;13.372;2022-09-21T00:48:08;101445.88;;;9.13;100.00
68525;BME280;55524;51.380;13.372;2022-09-21T00:50:35;101436.19;;;9.15;100.00
68525;BME280;55524;51.380;13.372;2022-09-21T00:53:05;101445.00;;;9.13;100.00
68525;BME280;55524;51.380;13.372;2022-09-21T00:55:34;101452.84;;;9.17;100.00
68525;BME280;55524;51.380;13.372;2022-09-21T00:58:12;101452.84;;;9.17;100.00
68525;BME280;55524;51.380;13.372;2022-09-21T01:00:41;101456.34;;;9.18;100.00
68525;BME280;55524;51.380;13.372;2022-09-21T01:03:09;101456.34;;;9.19;100.00
68525;BME280;55524;51.380;13.372;2022-09-21T01:05:37;101458.13;;;9.19;100.00
68525;BME280;55524;51.380;13.372;2022-09-21T01:08:05;101454.56;;;9.20;100.00
68525;BME280;55524;51.380;13.372;2022-09-21T01:10:53;101452.78;;;9.23;100.00
68525;BME280;55524;51.380;13.372;2022-09-21T01:16:25;101457.09;;;9.26;100.00
68525;BME280;55524;51.380;13.372;2022-09-21T01:18:59;101458.94;;;9.21;100.00
68525;BME280;55524;51.380;13.372;2022-09-21T01:21:33;101461.59;;;9.21;100.00
68525;BME280;55524;51.380;13.372;2022-09-21T01:26:55;101469.63;;;9.13;100.00
68525;BME280;55524;51.380;13.372;2022-09-21T01:29:31;101463.44;;;9.14;100.00
68525;BME280;55524;51.380;13.372;2022-09-21T01:32:07;101467.09;;;9.05;100.00
68525;BME280;55524;51.380;13.372;2022-09-21T01:34:41;101462.72;;;9.04;100.00
68525;BME280;55524;51.380;13.372;2022-09-21T01:37:21;101468.06;;;9.00;100.00
68525;BME280;55524;51.380;13.372;2022-09-21T01:39:53;101465.47;;;8.97;100.00
68525;BME280;55524;51.380;13.372;2022-09-21T01:42:22;101460.22;;;8.95;100.00
68525;BME280;55524;51.380;13.372;2022-09-21T01:44:50;101465.50;;;8.95;100.00
68525;BME280;55524;51.380;13.372;2022-09-21T01:47:17;101469.88;;;8.96;100.00
68525;BME280;55524;51.380;13.372;2022-09-21T01:49:51;101468.13;;;8.94;100.00
68525;BME280;55524;51.380;13.372;2022-09-21T01:52:28;101474.28;;;8.94;100.00
68525;BME280;55524;51.380;13.372;2022-09-21T01:55:28;101478.72;;;8.92;100.00
68525;BME280;55524;51.380;13.372;2022-09-21T01:58:07;101477.81;;;8.93;100.00
68525;BME280;55524;51.380;13.372;2022-09-21T02:00:37;101477.91;;;8.87;100.00
68525;BME280;55524;51.380;13.372;2022-09-21T02:03:20;101482.28;;;8.88;100.00
68525;BME280;55524;51.380;13.372;2022-09-21T02:05:49;101479.66;;;8.88;100.00
68525;BME280;55524;51.380;13.372;2022-09-21T02:08:16;101472.63;;;8.87;100.00
68525;BME280;55524;51.380;13.372;2022-09-21T02:10:46;101479.66;;;8.88;100.00
68525;BME280;55524;51.380;13.372;2022-09-21T02:13:14;101486.69;;;8.88;100.00
68525;BME280;55524;51.380;13.372;2022-09-21T02:32:05;101490.34;;;8.76;100.00
68525;BME280;55524;51.380;13.372;2022-09-21T02:34:48;101490.34;;;8.76;100.00
68525;BME280;55524;51.380;13.372;2022-09-21T02:37:23;101495.63;;;8.74;100.00
68525;BME280;55524;51.380;13.372;2022-09-21T02:40:09;101494.75;;;8.74;100.00
68525;BME280;55524;51.380;13.372;2022-09-21T02:42:41;101489.47;;;8.74;100.00
68525;BME280;55524;51.380;13.372;2022-09-21T02:45:25;101486.81;;;8.77;100.00
68525;BME280;55524;51.380;13.372;2022-09-21T02:48:08;101486.88;;;8.72;100.00
68525;BME280;55524;51.380;13.372;2022-09-21T02:50:43;101491.28;;;8.70;100.00
68525;BME280;55524;51.380;13.372;2022-09-21T02:53:11;101493.91;;;8.70;100.00
68525;BME280;55524;51.380;13.372;2022-09-21T02:55:40;101489.50;;;8.71;100.00
68525;BME280;55524;51.380;13.372;2022-09-21T02:58:12;101493.97;;;8.67;100.00
68525;BME280;55524;51.380;13.372;2022-09-21T03:00:39;101498.31;;;8.70;100.00
68525;BME280;55524;51.380;13.372;2022-09-21T03:03:20;101499.25;;;8.66;100.00
68525;BME280;55524;51.380;13.372;2022-09-21T03:05:48;101502.75;;;8.66;100.00
68525;BME280;55524;51.380;13.372;2022-09-21T03:08:16;101497.50;;;8.65;100.00
68525;BME280;55524;51.380;13.372;2022-09-21T03:10:43;101504.63;;;8.59;100.00
68525;BME280;55524;51.380;13.372;2022-09-21T03:13:10;101506.31;;;8.62;100.00
68525;BME280;55524;51.380;13.372;2022-09-21T03:15:37;101503.72;;;8.59;100.00
68525;BME280;55524;51.380;13.372;2022-09-21T03:18:08;101515.19;;;8.55;100.00
68525;BME280;55524;51.380;13.372;2022-09-21T03:20:39;101511.78;;;8.45;100.00
68525;BME280;55524;51.380;13.372;2022-09-21T03:23:06;101512.69;;;8.44;100.00
68525;BME280;55524;51.380;13.372;2022-09-21T03:25:32;101508.28;;;8.43;100.00
68525;BME280;55524;51.380;13.372;2022-09-21T03:27:59;101510.09;;;8.38;100.00
68525;BME280;55524;51.380;13.372;2022-09-21T03:30:26;101518.06;;;8.32;100.00
68525;BME280;55524;51.380;13.372;2022-09-21T03:32:54;101512.81;;;8.27;100.00
68525;BME280;55524;51.380;13.372;2022-09-21T03:35:22;101518.16;;;8.21;100.00
68525;BME280;55524;51.380;13.372;2022-09-21T03:37:49;101516.44;;;8.17;100.00
68525;BME280;55524;51.380;13.372;2022-09-21T03:40:16;101518.25;;;8.10;100.00
68525;BME280;55524;51.380;13.372;2022-09-21T03:42:43;101516.53;;;8.06;100.00
68525;BME280;55524;51.380;13.372;2022-09-21T03:45:10;101518.38;;;8.01;100.00
68525;BME280;55524;51.380;13.372;2022-09-21T03:47:38;101521.09;;;7.91;100.00
68525;BME280;55524;51.380;13.372;2022-09-21T03:50:06;101525.53;;;7.82;100.00
68525;BME280;55524;51.380;13.372;2022-09-21T03:52:33;101525.59;;;7.75;100.00
68525;BME280;55524;51.380;13.372;2022-09-21T03:54:59;101526.53;;;7.68;100.00
68525;BME280;55524;51.380;13.372;2022-09-21T03:57:25;101523.06;;;7.66;100.00
68525;BME280;55524;51.380;13.372;2022-09-21T03:59:51;101524.84;;;7.60;100.00
68525;BME280;55524;51.380;13.372;2022-09-21T04:02:19;101527.50;;;7.60;100.00
68525;BME280;55524;51.380;13.372;2022-09-21T04:04:45;101524.00;;;7.55;100.00
68525;BME280;55524;51.380;13.372;2022-09-21T04:07:12;101524.94;;;7.50;100.00
68525;BME280;55524;51.380;13.372;2022-09-21T04:09:40;101524.09;;;7.40;100.00
68525;BME280;55524;51.380;13.372;2022-09-21T04:12:07;101528.50;;;7.38;100.00
68525;BME280;55524;51.380;13.372;2022-09-21T04:14:33;101531.19;;;7.30;100.00
68525;BME280;55524;51.380;13.372;2022-09-21T04:16:59;101528.59;;;7.23;100.00
68525;BME280;55524;51.380;13.372;2022-09-21T04:19:26;101527.72;;;7.25;100.00
68525;BME280;55524;51.380;13.372;2022-09-21T04:21:52;101534.72;;;7.23;100.00
68525;BME280;55524;51.380;13.372;2022-09-21T04:24:21;101542.66;;;7.19;100.00
68525;BME280;55524;51.380;13.372;2022-09-21T04:26:48;101547.91;;;7.15;100.00
68525;BME280;55524;51.380;13.372;2022-09-21T04:29:15;101549.69;;;7.13;100.00
68525;BME280;55524;51.380;13.372;2022-09-21T04:31:42;101547.06;;;7.12;100.00
68525;BME280;55524;51.380;13.372;2022-09-21T04:34:12;101552.31;;;7.13;100.00
68525;BME280;55524;51.380;13.372;2022-09-21T04:36:38;101546.25;;;7.05;100.00
68525;BME280;55524;51.380;13.372;2022-09-21T04:39:05;101554.09;;;7.07;100.00
68525;BME280;55524;51.380;13.372;2022-09-21T04:41:32;101547.97;;;7.03;100.00
68525;BME280;55524;51.380;13.372;2022-09-21T04:43:58;101546.22;;;7.01;100.00
68525;BME280;55524;51.380;13.372;2022-09-21T04:46:27;101561.16;;;6.96;100.00
68525;BME280;55524;51.380;13.372;2022-09-21T04:48:56;101555.94;;;6.88;100.00
68525;BME280;55524;51.380;13.372;2022-09-21T04:51:22;101561.25;;;6.77;100.00
68525;BME280;55524;51.380;13.372;2022-09-21T04:53:48;101570.88;;;6.72;100.00
68525;BME280;55524;51.380;13.372;2022-09-21T04:56:15;101569.13;;;6.76;100.00
68525;BME280;55524;51.380;13.372;2022-09-21T04:58:42;101574.38;;;6.73;100.00
68525;BME280;55524;51.380;13.372;2022-09-21T05:01:09;101568.28;;;6.71;100.00
68525;BME280;55524;51.380;13.372;2022-09-21T05:03:36;101575.28;;;6.67;100.00
68525;BME280;55524;51.380;13.372;2022-09-21T05:06:03;101575.25;;;6.69;100.00
68525;BME280;55524;51.380;13.372;2022-09-21T05:08:30;101574.41;;;6.65;100.00
68525;BME280;55524;51.380;13.372;2022-09-21T05:11:17;101576.16;;;6.60;100.00
68525;BME280;55524;51.380;13.372;2022-09-21T05:13:46;101575.31;;;6.56;100.00
68525;BME280;55524;51.380;13.372;2022-09-21T05:16:30;101576.19;;;6.58;100.00
68525;BME280;55524;51.380;13.372;2022-09-21T05:18:56;101578.78;;;6.60;100.00
68525;BME280;55524;51.380;13.372;2022-09-21T05:21:23;101586.69;;;6.58;100.00
68525;BME280;55524;51.380;13.372;2022-09-21T05:24:01;101593.69;;;6.58;100.00
68525;BME280;55524;51.380;13.372;2022-09-21T05:26:30;101597.19;;;6.55;100.00
68525;BME280;55524;51.380;13.372;2022-09-21T05:28:57;101598.94;;;6.59;100.00
68525;BME280;55524;51.380;13.372;2022-09-21T05:39:21;101604.16;;;6.69;100.00
68525;BME280;55524;51.380;13.372;2022-09-21T05:41:48;101610.28;;;6.75;100.00
68525;BME280;55524;51.380;13.372;2022-09-21T05:44:15;101610.25;;;6.83;100.00
68525;BME280;55524;51.380;13.372;2022-09-21T05:49:48;101611.09;;;6.97;100.00
68525;BME280;55524;51.380;13.372;2022-09-21T05:55:56;101611.88;;;7.16;100.00
68525;BME280;55524;51.380;13.372;2022-09-21T06:04:26;101611.69;;;7.51;100.00
68525;BME280;55524;51.380;13.372;2022-09-21T06:06:52;101611.66;;;7.62;100.00
68525;BME280;55524;51.380;13.372;2022-09-21T06:09:18;101613.41;;;7.64;100.00
68525;BME280;55524;51.380;13.372;2022-09-21T06:11:46;101617.69;;;7.78;100.00
68525;BME280;55524;51.380;13.372;2022-09-21T06:14:12;101611.50;;;7.82;100.00
68525;BME280;55524;51.380;13.372;2022-09-21T06:16:42;101613.22;;;7.86;100.00
68525;BME280;55524;51.380;13.372;2022-09-21T06:19:12;101613.25;;;7.83;100.00
68525;BME280;55524;51.380;13.372;2022-09-21T06:21:38;101611.47;;;7.89;100.00
68525;BME280;55524;51.380;13.372;2022-09-21T06:24:06;101621.03;;;7.98;100.00
68525;BME280;55524;51.380;13.372;2022-09-21T06:26:32;101615.75;;;8.01;100.00
68525;BME280;55524;51.380;13.372;2022-09-21T06:28:58;101620.16;;;7.99;100.00
68525;BME280;55524;51.380;13.372;2022-09-21T06:31:26;101623.56;;;8.10;100.00
68525;BME280;55524;51.380;13.372;2022-09-21T06:33:52;101622.63;;;8.18;100.00
68525;BME280;55524;51.380;13.372;2022-09-21T06:36:19;101627.06;;;8.14;100.00
68525;BME280;55524;51.380;13.372;2022-09-21T06:38:45;101629.66;;;8.19;100.00
68525;BME280;55524;51.380;13.372;2022-09-21T06:41:11;101625.22;;;8.25;100.00
68525;BME280;55524;51.380;13.372;2022-09-21T06:43:37;101628.69;;;8.29;100.00
68525;BME280;55524;51.380;13.372;2022-09-21T06:46:04;101621.63;;;8.34;100.00
68525;BME280;55524;51.380;13.372;2022-09-21T06:48:32;101627.75;;;8.41;100.00
68525;BME280;55524;51.380;13.372;2022-09-21T06:51:00;101622.41;;;8.48;100.00
68525;BME280;55524;51.380;13.372;2022-09-21T06:53:28;101619.66;;;8.57;100.00
68525;BME280;55524;51.380;13.372;2022-09-21T06:56:02;101622.19;;;8.70;100.00
68525;BME280;55524;51.380;13.372;2022-09-21T06:58:30;101616.84;;;8.74;100.00
68525;BME280;55524;51.380;13.372;2022-09-21T07:00:56;101625.56;;;8.81;100.00
68525;BME280;55524;51.380;13.372;2022-09-21T07:03:23;101621.84;;;9.00;100.00
68525;BME280;55524;51.380;13.372;2022-09-21T07:05:50;101618.91;;;9.25;100.00
68525;BME280;55524;51.380;13.372;2022-09-21T07:08:17;101632.78;;;9.39;100.00
68525;BME280;55524;51.380;13.372;2022-09-21T07:10:43;101633.34;;;9.63;100.00
68525;BME280;55524;51.380;13.372;2022-09-21T07:13:09;101634.53;;;10.02;100.00
68525;BME280;55524;51.380;13.372;2022-09-21T07:15:35;101627.75;;;10.88;93.50
68525;BME280;55524;51.380;13.372;2022-09-21T07:18:10;101627.69;;;11.34;90.18
68525;BME280;55524;51.380;13.372;2022-09-21T07:20:37;101631.84;;;11.46;88.29
68525;BME280;55524;51.380;13.372;2022-09-21T07:23:15;101625.56;;;11.90;86.38
68525;BME280;55524;51.380;13.372;2022-09-21T07:25:42;101630.28;;;12.49;83.72
68525;BME280;55524;51.380;13.372;2022-09-21T07:28:10;101618.09;;;13.07;80.25
68525;BME280;55524;51.380;13.372;2022-09-21T07:30:37;101627.81;;;13.38;79.92
68525;BME280;55524;51.380;13.372;2022-09-21T07:33:04;101611.66;;;13.16;78.92
68525;BME280;55524;51.380;13.372;2022-09-21T07:35:31;101636.88;;;12.99;80.71
68525;BME280;55524;51.380;13.372;2022-09-21T07:37:58;101636.78;;;13.02;80.64
68525;BME280;55524;51.380;13.372;2022-09-21T07:40:24;101639.78;;;12.58;81.24
68525;BME280;55524;51.380;13.372;2022-09-21T07:42:51;101633.03;;;12.78;80.02
68525;BME280;55524;51.380;13.372;2022-09-21T07:45:17;101633.16;;;13.07;80.83
68525;BME280;55524;51.380;13.372;2022-09-21T07:47:44;101629.97;;;13.25;79.63
68525;BME280;55524;51.380;13.372;2022-09-21T07:50:11;101639.84;;;12.89;80.29
68525;BME280;55524;51.380;13.372;2022-09-21T07:52:37;101635.03;;;13.01;80.34
68525;BME280;55524;51.380;13.372;2022-09-21T07:55:04;101643.34;;;12.91;80.61
68525;BME280;55524;51.380;13.372;2022-09-21T07:57:30;101645.16;;;13.20;79.58
68525;BME280;55524;51.380;13.372;2022-09-21T08:00:15;101630.50;;;13.66;78.11
68525;BME280;55524;51.380;13.372;2022-09-21T08:02:41;101627.13;;;13.61;76.90
68525;BME280;55524;51.380;13.372;2022-09-21T08:05:07;101628.63;;;13.69;74.78
68525;BME280;55524;51.380;13.372;2022-09-21T08:07:34;101626.13;;;13.93;75.79
68525;BME280;55524;51.380;13.372;2022-09-21T08:10:00;101632.66;;;14.11;75.72
68525;BME280;55524;51.380;13.372;2022-09-21T08:12:26;101627.88;;;14.47;74.65
68525;BME280;55524;51.380;13.372;2022-09-21T08:14:52;101615.44;;;14.47;73.32
68525;BME280;55524;51.380;13.372;2022-09-21T08:17:18;101621.88;;;14.67;73.03
68525;BME280;55524;51.380;13.372;2022-09-21T08:19:45;101626.19;;;14.71;72.85
68525;BME280;55524;51.380;13.372;2022-09-21T08:22:12;101619.81;;;14.48;72.88
68525;BME280;55524;51.380;13.372;2022-09-21T08:24:39;101624.16;;;15.03;72.35
68525;BME280;55524;51.380;13.372;2022-09-21T08:27:06;101623.50;;;14.96;72.88
68525;BME280;55524;51.380;13.372;2022-09-21T08:29:33;101619.22;;;14.67;72.36
68525;BME280;55524;51.380;13.372;2022-09-21T08:32:01;101607.88;;;14.87;71.42
68525;BME280;55524;51.380;13.372;2022-09-21T08:34:27;101609.88;;;15.05;71.00
68525;BME280;55524;51.380;13.372;2022-09-21T08:36:54;101631.41;;;14.47;73.61
68525;BME280;55524;51.380;13.372;2022-09-21T08:39:20;101643.06;;;14.17;75.12
68525;BME280;55524;51.380;13.372;2022-09-21T08:47:20;101659.25;;;13.53;77.84
68525;BME280;55524;51.380;13.372;2022-09-21T08:49:56;101655.03;;;14.03;76.77
68525;BME280;55524;51.380;13.372;2022-09-21T08:52:24;101635.94;;;14.17;74.90
68525;BME280;55524;51.380;13.372;2022-09-21T08:57:20;101612.06;;;15.17;71.36
68525;BME280;55524;51.380;13.372;2022-09-21T08:59:49;101596.31;;;15.35;69.12
68525;BME280;55524;51.380;13.372;2022-09-21T09:10:54;101587.22;;;16.48;66.70
68525;BME280;55524;51.380;13.372;2022-09-21T09:16:35;101627.19;;;15.17;71.63
68525;BME280;55524;51.380;13.372;2022-09-21T09:22:11;101638.72;;;14.67;74.26
68525;BME280;55524;51.380;13.372;2022-09-21T09:24:40;101635.66;;;15.03;73.67
68525;BME280;55524;51.380;13.372;2022-09-21T09:27:21;101594.25;;;15.87;68.97
68525;BME280;55524;51.380;13.372;2022-09-21T09:30:12;101609.09;;;15.94;69.83
68525;BME280;55524;51.380;13.372;2022-09-21T09:35:26;101607.59;;;15.65;70.79
68525;BME280;55524;51.380;13.372;2022-09-21T09:38:01;101625.28;;;15.20;72.26
68525;BME280;55524;51.380;13.372;2022-09-21T09:49:33;101628.22;;;14.88;74.52
68525;BME280;55524;51.380;13.372;2022-09-21T09:52:03;101615.50;;;15.21;72.72
68525;BME280;55524;51.380;13.372;2022-09-21T09:54:33;101583.72;;;16.06;68.44
68525;BME280;55524;51.380;13.372;2022-09-21T09:57:02;101566.97;;;16.22;66.86
68525;BME280;55524;51.380;13.372;2022-09-21T10:05:18;101625.19;;;15.22;72.95
68525;BME280;55524;51.380;13.372;2022-09-21T10:07:45;101615.88;;;15.34;72.21
68525;BME280;55524;51.380;13.372;2022-09-21T10:15:31;101625.56;;;15.13;73.76
68525;BME280;55524;51.380;13.372;2022-09-21T10:18:05;101626.75;;;15.04;74.28
68525;BME280;55524;51.380;13.372;2022-09-21T10:20:33;101616.34;;;15.21;73.52
68525;BME280;55524;51.380;13.372;2022-09-21T10:23:00;101597.34;;;15.07;71.76
68525;BME280;55524;51.380;13.372;2022-09-21T10:25:26;101604.25;;;16.04;72.37
68525;BME280;55524;51.380;13.372;2022-09-21T10:27:54;101578.03;;;16.76;69.05
68525;BME280;55524;51.380;13.372;2022-09-21T10:30:34;101556.50;;;16.18;66.40
68525;BME280;55524;51.380;13.372;2022-09-21T10:33:01;101565.38;;;16.39;67.59
68525;BME280;55524;51.380;13.372;2022-09-21T10:35:27;101539.41;;;16.63;64.64
68525;BME280;55524;51.380;13.372;2022-09-21T10:38:15;101540.81;;;16.92;64.96
68525;BME280;55524;51.380;13.372;2022-09-21T10:40:44;101534.47;;;17.32;63.47
68525;BME280;55524;51.380;13.372;2022-09-21T10:43:34;101537.75;;;16.81;63.13
68525;BME280;55524;51.380;13.372;2022-09-21T10:46:01;101523.97;;;16.30;62.50
68525;BME280;55524;51.380;13.372;2022-09-21T10:48:28;101574.88;;;15.60;67.51
68525;BME280;55524;51.380;13.372;2022-09-21T10:50:55;101578.63;;;15.32;68.17
68525;BME280;55524;51.380;13.372;2022-09-21T10:56:01;101543.72;;;15.84;64.70
68525;BME280;55524;51.380;13.372;2022-09-21T10:58:29;101516.19;;;16.85;62.47
68525;BME280;55524;51.380;13.372;2022-09-21T11:01:08;101505.78;;;17.17;59.98
68525;BME280;55524;51.380;13.372;2022-09-21T11:06:22;101573.78;;;15.87;67.51
68525;BME280;55524;51.380;13.372;2022-09-21T11:14:41;101548.41;;;15.55;66.09
68525;BME280;55524;51.380;13.372;2022-09-21T11:17:19;101550.97;;;15.36;65.93
68525;BME280;55524;51.380;13.372;2022-09-21T11:19:56;101540.91;;;15.66;64.11
68525;BME280;55524;51.380;13.372;2022-09-21T11:22:48;101548.94;;;15.87;65.07
68525;BME280;55524;51.380;13.372;2022-09-21T11:31:55;101548.06;;;15.86;66.35
68525;BME280;55524;51.380;13.372;2022-09-21T11:34:10;101547.69;;;15.52;66.16
68525;BME280;55524;51.380;13.372;2022-09-21T11:37:01;101551.88;;;15.35;67.28
68525;BME280;55524;51.380;13.372;2022-09-21T11:39:48;101576.59;;;15.39;69.36
68525;BME280;55524;51.380;13.372;2022-09-21T12:04:48;101541.50;;;16.15;66.47
68525;BME280;55524;51.380;13.372;2022-09-21T12:12:50;101533.69;;;16.11;65.50
68525;BME280;55524;51.380;13.372;2022-09-21T12:21:22;101528.84;;;16.41;65.36
68525;BME280;55524;51.380;13.372;2022-09-21T12:23:56;101521.97;;;16.56;64.03
68525;BME280;55524;51.380;13.372;2022-09-21T12:26:32;101515.69;;;16.57;64.23
68525;BME280;55524;51.380;13.372;2022-09-21T12:29:16;101510.25;;;16.39;63.77
68525;BME280;55524;51.380;13.372;2022-09-21T12:34:25;101514.25;;;16.09;65.96
68525;BME280;55524;51.380;13.372;2022-09-21T12:39:43;101514.31;;;16.28;66.08
68525;BME280;55524;51.380;13.372;2022-09-21T12:42:39;101495.41;;;16.53;63.21
68525;BME280;55524;51.380;13.372;2022-09-21T12:46:19;101473.16;;;17.10;60.82
68525;BME280;55524;51.380;13.372;2022-09-21T12:48:33;101461.13;;;17.74;60.12
68525;BME280;55524;51.380;13.372;2022-09-21T12:51:21;101430.38;;;18.00;56.82
68525;BME280;55524;51.380;13.372;2022-09-21T12:53:59;101437.81;;;16.86;57.33
68525;BME280;55524;51.380;13.372;2022-09-21T12:56:49;101416.31;;;16.89;55.50
68525;BME280;55524;51.380;13.372;2022-09-21T13:05:39;101467.22;;;15.86;60.13
68525;BME280;55524;51.380;13.372;2022-09-21T13:10:47;101473.31;;;15.89;61.81
68525;BME280;55524;51.380;13.372;2022-09-21T13:13:26;101459.19;;;16.08;60.01
68525;BME280;55524;51.380;13.372;2022-09-21T13:15:59;101474.50;;;15.82;61.15
68525;BME280;55524;51.380;13.372;2022-09-21T13:18:33;101450.69;;;15.56;59.31
68525;BME280;55524;51.380;13.372;2022-09-21T13:21:17;101463.63;;;15.87;60.37
68525;BME280;55524;51.380;13.372;2022-09-21T13:23:54;101463.69;;;15.85;60.12
68525;BME280;55524;51.380;13.372;2022-09-21T13:26:41;101457.59;;;16.04;59.51
68525;BME280;55524;51.380;13.372;2022-09-21T13:32:18;101464.25;;;15.93;60.49
68525;BME280;55524;51.380;13.372;2022-09-21T13:34:45;101464.56;;;15.86;60.82
68525;BME280;55524;51.380;13.372;2022-09-21T13:47:45;101436.94;;;16.86;59.31
68525;BME280;55524;51.380;13.372;2022-09-21T13:50:42;101391.75;;;17.88;55.54
68525;BME280;55524;51.380;13.372;2022-09-21T13:53:37;101385.53;;;18.21;55.05
68525;BME280;55524;51.380;13.372;2022-09-21T13:56:08;101384.88;;;18.98;56.41
68525;BME280;55524;51.380;13.372;2022-09-21T13:58:44;101365.16;;;18.99;53.49
68525;BME280;55524;51.380;13.372;2022-09-21T14:04:32;101372.69;;;18.28;54.17
68525;BME280;55524;51.380;13.372;2022-09-21T14:07:10;101355.09;;;18.39;52.23
68525;BME280;55524;51.380;13.372;2022-09-21T14:09:50;101344.69;;;18.02;51.08
68525;BME280;55524;51.380;13.372;2022-09-21T14:12:24;101310.28;;;17.61;48.68
68525;BME280;55524;51.380;13.372;2022-09-21T14:15:37;101385.63;;;17.34;55.20
68525;BME280;55524;51.380;13.372;2022-09-21T14:18:53;101380.75;;;17.42;54.38
68525;BME280;55524;51.380;13.372;2022-09-21T14:26:17;101434.13;;;16.31;59.71
68525;BME280;55524;51.380;13.372;2022-09-21T14:28:41;101434.38;;;16.45;60.09
68525;BME280;55524;51.380;13.372;2022-09-21T14:31:23;101433.13;;;16.33;60.92
68525;BME280;55524;51.380;13.372;2022-09-21T14:33:57;101440.22;;;16.14;60.93
68525;BME280;55524;51.380;13.372;2022-09-21T14:36:55;101441.38;;;15.88;61.40
68525;BME280;55524;51.380;13.372;2022-09-21T14:39:36;101441.50;;;16.05;62.08
68525;BME280;55524;51.380;13.372;2022-09-21T14:42:17;101461.81;;;15.87;63.96
68525;BME280;55524;51.380;13.372;2022-09-21T14:44:56;101441.19;;;16.71;62.08
68525;BME280;55524;51.380;13.372;2022-09-21T14:47:51;101415.16;;;16.95;58.87
68525;BME280;55524;51.380;13.372;2022-09-21T15:02:22;101373.78;;;17.75;56.66
68525;BME280;55524;51.380;13.372;2022-09-21T15:05:00;101377.44;;;17.72;56.70
68525;BME280;55524;51.380;13.372;2022-09-21T15:07:48;101368.94;;;17.81;55.46
68525;BME280;55524;51.380;13.372;2022-09-21T15:11:12;101376.94;;;17.29;56.80
68525;BME280;55524;51.380;13.372;2022-09-21T15:13:51;101352.91;;;17.47;54.19
68525;BME280;55524;51.380;13.372;2022-09-21T15:18:59;101395.06;;;17.05;59.15
68525;BME280;55524;51.380;13.372;2022-09-21T15:21:31;101381.13;;;17.35;56.83
68525;BME280;55524;51.380;13.372;2022-09-21T15:24:20;101391.72;;;17.36;58.54
68525;BME280;55524;51.380;13.372;2022-09-21T15:26:49;101396.53;;;16.93;59.43
68525;BME280;55524;51.380;13.372;2022-09-21T15:29:29;101397.34;;;16.77;60.14
68525;BME280;55524;51.380;13.372;2022-09-21T15:32:02;101411.88;;;16.51;60.40
68525;BME280;55524;51.380;13.372;2022-09-21T15:34:34;101422.22;;;16.19;62.87
68525;BME280;55524;51.380;13.372;2022-09-21T15:37:21;101425.75;;;15.99;62.86
68525;BME280;55524;51.380;13.372;2022-09-21T15:40:05;101427.69;;;15.95;63.11
68525;BME280;55524;51.380;13.372;2022-09-21T15:42:37;101410.28;;;16.07;62.10
68525;BME280;55524;51.380;13.372;2022-09-21T15:45:16;101408.81;;;16.20;61.63
68525;BME280;55524;51.380;13.372;2022-09-21T15:47:45;101400.41;;;16.48;60.89
68525;BME280;55524;51.380;13.372;2022-09-21T15:50:25;101385.00;;;16.55;59.77
68525;BME280;55524;51.380;13.372;2022-09-21T15:52:58;101378.97;;;16.69;58.97
68525;BME280;55524;51.380;13.372;2022-09-21T15:55:46;101384.47;;;16.66;58.89
68525;BME280;55524;51.380;13.372;2022-09-21T15:58:35;101389.16;;;16.61;59.61
68525;BME280;55524;51.380;13.372;2022-09-21T16:01:09;101377.63;;;16.41;58.14
68525;BME280;55524;51.380;13.372;2022-09-21T16:04:00;101386.69;;;16.37;60.27
68525;BME280;55524;51.380;13.372;2022-09-21T16:06:24;101376.16;;;16.34;57.91
68525;BME280;55524;51.380;13.372;2022-09-21T16:08:51;101374.72;;;16.46;58.23
68525;BME280;55524;51.380;13.372;2022-09-21T16:14:13;101386.28;;;16.28;58.75
68525;BME280;55524;51.380;13.372;2022-09-21T16:28:23;101458.66;;;15.35;65.61
68525;BME280;55524;51.380;13.372;2022-09-21T16:30:55;101464.47;;;15.23;66.13